Time;durP1;ratioP1;P1;durP2;ratioP2;P2;SDS_P1;SDS_P2;PMS_P1;PMS_P2;Temp;Humidity;BMP_temperature;BMP_pressure;BME280_temperature;BME280_humidity;BME280_pressure;Samples;Min_cycle;Max_cycle;Signal;HPM_P1;HPM_P2
2021/12/11 00:01:59;;;;;;;1.55;1.45;;;1.70;99.90;;;;;;5069533;28;20230;-63
2021/12/11 00:04:32;;;;;;;2.00;1.70;;;1.70;99.90;;;;;;5070291;28;20433;-63
2021/12/11 00:07:02;;;;;;;3.42;1.80;;;1.70;99.90;;;;;;5120625;22;20821;-65
2021/12/11 00:09:33;;;;;;;2.00;1.83;;;1.70;99.90;;;;;;5048698;28;20199;-65
2021/12/11 00:12:03;;;;;;;1.95;1.75;;;1.60;99.90;;;;;;5048704;28;20231;-65
2021/12/11 00:14:33;;;;;;;4.30;1.67;;;1.70;99.90;;;;;;5049031;28;20201;-65
2021/12/11 00:17:00;;;;;;;2.78;1.98;;;1.70;99.90;;;;;;5048714;28;20627;-64
2021/12/11 00:19:29;;;;;;;3.15;1.75;;;1.70;99.90;;;;;;5049675;28;20231;-65
2021/12/11 00:22:06;;;;;;;1.67;1.58;;;1.70;99.90;;;;;;5047980;28;20217;-65
2021/12/11 00:24:35;;;;;;;1.98;1.70;;;1.70;99.90;;;;;;5049163;28;20250;-65
2021/12/11 00:27:06;;;;;;;2.17;1.80;;;1.70;99.90;;;;;;5048803;28;20579;-65
2021/12/11 00:29:35;;;;;;;2.28;2.08;;;1.70;99.90;;;;;;5049316;28;20672;-65
2021/12/11 00:32:06;;;;;;;1.98;1.77;;;1.70;99.90;;;;;;5048110;28;20233;-64
2021/12/11 00:34:33;;;;;;;2.03;1.80;;;1.70;99.90;;;;;;5049142;28;20205;-64
2021/12/11 00:37:03;;;;;;;2.13;1.40;;;1.70;99.90;;;;;;5048937;28;20237;-65
2021/12/11 00:39:31;;;;;;;2.05;1.88;;;1.70;99.90;;;;;;5048799;28;20201;-64
2021/12/11 00:42:00;;;;;;;3.00;1.90;;;1.70;99.90;;;;;;5048414;28;20224;-63
2021/12/11 00:44:35;;;;;;;1.90;1.50;;;1.80;99.90;;;;;;5048076;28;20201;-64
2021/12/11 00:47:08;;;;;;;1.70;1.60;;;1.80;99.90;;;;;;5049251;28;20197;-65
2021/12/11 00:49:35;;;;;;;3.17;1.30;;;1.80;99.90;;;;;;5049098;28;20204;-64
2021/12/11 00:52:01;;;;;;;1.48;1.23;;;1.90;99.90;;;;;;5047962;28;20224;-64
2021/12/11 00:54:28;;;;;;;1.40;1.30;;;1.90;99.90;;;;;;5048937;28;20209;-65
2021/12/11 00:56:55;;;;;;;2.47;1.60;;;1.90;99.90;;;;;;5050283;28;20595;-63
2021/12/11 00:59:23;;;;;;;1.40;1.30;;;1.90;99.90;;;;;;5052167;28;20220;-63
2021/12/11 01:01:53;;;;;;;1.50;1.40;;;1.90;99.90;;;;;;5051984;28;20229;-64
2021/12/11 01:04:32;;;;;;;1.55;1.45;;;1.90;99.90;;;;;;5052576;28;20204;-65
2021/12/11 01:07:01;;;;;;;1.25;1.15;;;1.90;99.90;;;;;;5052362;28;20698;-65
2021/12/11 01:09:30;;;;;;;1.85;1.40;;;1.90;99.90;;;;;;5052877;28;20705;-63
2021/12/11 01:12:03;;;;;;;1.40;1.30;;;1.90;99.90;;;;;;5052420;28;20229;-65
2021/12/11 01:14:37;;;;;;;1.70;1.45;;;1.90;99.90;;;;;;5052695;28;20197;-65
2021/12/11 01:17:08;;;;;;;1.40;1.30;;;2.00;99.90;;;;;;5052866;28;20228;-65
2021/12/11 01:19:38;;;;;;;1.50;1.30;;;1.90;99.90;;;;;;5052475;28;20201;-64
2021/12/11 01:22:11;;;;;;;4.93;1.70;;;2.00;99.90;;;;;;5052285;28;20316;-64
2021/12/11 01:24:42;;;;;;;1.55;1.45;;;2.00;99.90;;;;;;5053133;28;20287;-65
2021/12/11 01:27:11;;;;;;;1.48;1.30;;;2.00;99.90;;;;;;5052226;28;20193;-65
2021/12/11 01:29:40;;;;;;;1.20;1.10;;;2.00;99.90;;;;;;5052748;28;20691;-65
2021/12/11 01:32:08;;;;;;;1.98;1.17;;;2.00;99.90;;;;;;5051550;28;20225;-65
2021/12/11 01:34:36;;;;;;;1.60;1.27;;;2.10;99.90;;;;;;5052633;28;20201;-65
2021/12/11 01:37:04;;;;;;;1.40;1.30;;;2.00;99.90;;;;;;5052111;28;20213;-65
2021/12/11 01:39:34;;;;;;;1.40;1.30;;;2.00;99.90;;;;;;5052689;28;20679;-65
2021/12/11 01:42:06;;;;;;;1.40;1.30;;;2.00;99.90;;;;;;5051770;28;20224;-65
2021/12/11 01:44:37;;;;;;;1.20;1.10;;;2.10;99.90;;;;;;5052201;28;20240;-65
2021/12/11 01:47:10;;;;;;;1.92;1.20;;;2.10;99.90;;;;;;5052250;28;20227;-64
2021/12/11 01:49:39;;;;;;;1.25;1.15;;;2.10;99.90;;;;;;5052057;28;20225;-64
2021/12/11 01:52:12;;;;;;;2.35;1.50;;;2.10;99.90;;;;;;5051618;28;20327;-65
2021/12/11 01:54:44;;;;;;;1.83;1.30;;;2.10;99.90;;;;;;5052235;28;20205;-65
2021/12/11 01:57:14;;;;;;;1.75;1.35;;;2.10;99.90;;;;;;5051966;28;20274;-65
2021/12/11 01:59:44;;;;;;;1.33;1.23;;;2.20;99.90;;;;;;5052395;28;20668;-65
2021/12/11 02:02:15;;;;;;;1.90;1.30;;;2.20;99.90;;;;;;5051622;28;20228;-65
2021/12/11 02:04:47;;;;;;;1.95;1.42;;;2.20;99.90;;;;;;5052432;28;20201;-65
2021/12/11 02:07:16;;;;;;;1.40;1.30;;;2.20;99.90;;;;;;5051216;28;20212;-65
2021/12/11 02:09:44;;;;;;;1.50;1.40;;;2.20;99.90;;;;;;5051680;28;20257;-65
2021/12/11 02:12:19;;;;;;;1.60;1.20;;;2.30;99.90;;;;;;5050483;28;20225;-65
2021/12/11 02:14:50;;;;;;;1.92;1.10;;;2.30;99.90;;;;;;5052170;28;20211;-65
2021/12/11 02:17:24;;;;;;;1.65;1.20;;;2.30;99.90;;;;;;5051446;28;20227;-65
2021/12/11 02:19:54;;;;;;;1.30;1.20;;;2.30;99.90;;;;;;5052040;28;20208;-63
2021/12/11 02:22:26;;;;;;;1.25;1.15;;;2.30;99.90;;;;;;5051067;28;20258;-65
2021/12/11 02:24:57;;;;;;;2.00;1.30;;;2.30;99.90;;;;;;5051053;28;20893;-65
2021/12/11 02:27:28;;;;;;;1.40;1.30;;;2.30;99.90;;;;;;5050885;28;20281;-65
2021/12/11 02:30:02;;;;;;;1.38;1.27;;;2.40;99.90;;;;;;5051269;28;20205;-65
2021/12/11 02:32:32;;;;;;;1.65;1.38;;;2.40;99.90;;;;;;5050788;28;20225;-64
2021/12/11 02:35:04;;;;;;;1.23;1.10;;;2.40;99.90;;;;;;5050885;28;20680;-65
2021/12/11 02:37:37;;;;;;;1.35;1.25;;;2.40;99.90;;;;;;5051246;28;20248;-64
2021/12/11 02:40:13;;;;;;;1.20;1.10;;;2.30;99.90;;;;;;5051347;28;20215;-63
2021/12/11 02:42:43;;;;;;;1.30;1.20;;;2.10;99.90;;;;;;5050335;28;20221;-65
2021/12/11 02:45:15;;;;;;;1.20;1.08;;;2.10;99.90;;;;;;5051069;28;20235;-64
2021/12/11 02:47:46;;;;;;;1.23;1.13;;;2.00;99.90;;;;;;5050806;28;20714;-64
2021/12/11 02:50:20;;;;;;;1.50;1.13;;;2.00;99.90;;;;;;5050999;28;20210;-64
2021/12/11 02:52:53;;;;;;;1.27;1.17;;;1.90;99.90;;;;;;5050158;28;20224;-65
2021/12/11 02:55:24;;;;;;;1.15;1.05;;;1.90;99.90;;;;;;5050896;28;20200;-64
2021/12/11 02:57:55;;;;;;;1.20;1.10;;;1.90;99.90;;;;;;5050987;28;20595;-63
2021/12/11 03:00:24;;;;;;;1.10;1.00;;;1.90;99.90;;;;;;5050398;28;20220;-63
2021/12/11 03:03:01;;;;;;;1.27;1.13;;;1.80;99.90;;;;;;5050263;28;20221;-64
2021/12/11 03:05:37;;;;;;;1.25;0.95;;;1.70;99.90;;;;;;5050509;28;20675;-64
2021/12/11 03:08:08;;;;;;;1.20;1.10;;;1.70;99.90;;;;;;5050928;28;20239;-65
2021/12/11 03:10:36;;;;;;;0.82;0.80;;;1.70;99.90;;;;;;5050382;28;20237;-65
2021/12/11 03:13:04;;;;;;;1.63;0.95;;;1.70;99.90;;;;;;5050342;28;20265;-64
2021/12/11 03:15:31;;;;;;;1.00;0.90;;;1.70;99.90;;;;;;5050741;28;20614;-64
2021/12/11 03:17:58;;;;;;;2.05;1.08;;;1.70;99.90;;;;;;5050024;28;20221;-64
2021/12/11 03:20:25;;;;;;;1.30;1.20;;;1.70;99.90;;;;;;5049973;28;20201;-64
2021/12/11 03:22:52;;;;;;;1.45;1.10;;;1.60;99.90;;;;;;5049605;28;20225;-64
2021/12/11 03:25:23;;;;;;;1.00;0.90;;;1.70;99.90;;;;;;5050436;28;20293;-65
2021/12/11 03:27:50;;;;;;;1.10;1.00;;;1.70;99.90;;;;;;5050157;28;20202;-64
2021/12/11 03:30:22;;;;;;;1.38;1.10;;;1.70;99.90;;;;;;5050641;28;20271;-64
2021/12/11 03:32:49;;;;;;;1.52;1.17;;;1.70;99.90;;;;;;5049906;28;20220;-64
2021/12/11 03:35:16;;;;;;;1.40;1.20;;;1.70;99.90;;;;;;5049863;28;20678;-65
2021/12/11 03:37:43;;;;;;;1.70;1.30;;;1.70;99.90;;;;;;5050343;28;20263;-64
2021/12/11 03:40:11;;;;;;;1.58;1.48;;;1.70;99.90;;;;;;5049622;28;20197;-65
2021/12/11 03:42:42;;;;;;;2.50;1.77;;;1.70;99.90;;;;;;5049743;28;20229;-64
2021/12/11 03:45:15;;;;;;;2.33;2.13;;;1.70;99.90;;;;;;5050147;28;20550;-64
2021/12/11 03:47:45;;;;;;;2.08;1.88;;;1.70;99.90;;;;;;5050345;28;20208;-64
2021/12/11 03:50:16;;;;;;;1.60;1.50;;;1.70;99.90;;;;;;5050160;28;20644;-65
2021/12/11 03:52:44;;;;;;;2.00;1.75;;;1.70;99.90;;;;;;5049320;28;20221;-64
2021/12/11 03:55:14;;;;;;;1.73;1.63;;;1.70;99.90;;;;;;5050008;28;20207;-65
2021/12/11 03:57:44;;;;;;;2.35;1.63;;;1.70;99.90;;;;;;5049798;28;20217;-65
2021/12/11 04:00:16;;;;;;;2.25;2.00;;;1.70;99.90;;;;;;5050319;28;20205;-65
2021/12/11 04:02:44;;;;;;;1.77;1.67;;;1.60;99.90;;;;;;5049672;28;20217;-65
2021/12/11 04:05:11;;;;;;;2.50;1.80;;;1.60;99.90;;;;;;5049791;28;20751;-65
2021/12/11 04:07:43;;;;;;;2.08;1.98;;;1.60;99.90;;;;;;5050153;28;20212;-65
2021/12/11 04:10:12;;;;;;;1.67;1.58;;;1.60;99.90;;;;;;5049638;28;20695;-65
2021/12/11 04:12:39;;;;;;;1.83;1.70;;;1.60;99.90;;;;;;5049441;28;20716;-65
2021/12/11 04:15:10;;;;;;;1.90;1.80;;;1.60;99.90;;;;;;5049672;28;20212;-65
2021/12/11 04:17:38;;;;;;;1.98;1.77;;;1.60;99.90;;;;;;5050161;28;20623;-65
2021/12/11 04:20:09;;;;;;;2.30;2.10;;;1.60;99.90;;;;;;5049917;28;20201;-64
2021/12/11 04:22:36;;;;;;;1.75;1.65;;;1.60;99.90;;;;;;5049178;28;20232;-65
2021/12/11 04:25:04;;;;;;;1.92;1.83;;;1.60;99.90;;;;;;5050004;28;20197;-65
2021/12/11 04:27:31;;;;;;;2.05;1.83;;;1.60;99.90;;;;;;5049576;28;20411;-65
2021/12/11 04:29:58;;;;;;;1.92;1.83;;;1.60;99.90;;;;;;5050422;28;20568;-64
2021/12/11 04:32:29;;;;;;;2.72;1.88;;;1.60;99.90;;;;;;5052367;28;20707;-65
2021/12/11 04:34:55;;;;;;;2.33;2.15;;;1.60;99.90;;;;;;5053941;28;20201;-65
2021/12/11 04:37:28;;;;;;;2.20;2.03;;;1.60;99.90;;;;;;5053328;28;20773;-64
2021/12/11 04:40:00;;;;;;;2.17;2.00;;;1.60;99.90;;;;;;5053282;28;20216;-65
2021/12/11 04:42:39;;;;;;;2.25;2.00;;;1.60;99.90;;;;;;5052809;28;20229;-65
2021/12/11 04:45:08;;;;;;;2.60;2.40;;;1.60;99.90;;;;;;5052898;28;20200;-65
2021/12/11 04:47:43;;;;;;;2.17;2.03;;;1.60;99.90;;;;;;5053593;28;20201;-65
2021/12/11 04:50:20;;;;;;;2.30;2.10;;;1.60;99.90;;;;;;5052952;28;20200;-64
2021/12/11 04:52:54;;;;;;;1.95;1.85;;;1.60;99.90;;;;;;5052956;28;20654;-64
2021/12/11 04:55:37;;;;;;;1.95;1.85;;;1.70;99.90;;;;;;5053155;28;20197;-65
2021/12/11 05:00:59;;;;;;;6.03;2.40;;;1.70;99.90;;;;;;5052330;28;20667;-65
2021/12/11 05:03:51;;;;;;;2.13;1.95;;;1.60;99.90;;;;;;5052572;28;20231;-64
2021/12/11 05:06:30;;;;;;;2.70;2.17;;;1.60;99.90;;;;;;5052966;28;20746;-65
2021/12/11 05:11:50;;;;;;;2.42;2.22;;;1.70;99.90;;;;;;5051669;28;20240;-65
2021/12/11 05:14:19;;;;;;;2.10;2.00;;;1.70;99.90;;;;;;5052376;28;20207;-64
2021/12/11 05:16:46;;;;;;;2.70;2.45;;;1.70;99.90;;;;;;5052989;28;20197;-65
2021/12/11 05:19:15;;;;;;;2.67;2.47;;;1.70;99.90;;;;;;5052683;28;20217;-64
2021/12/11 05:21:42;;;;;;;2.80;2.50;;;1.70;99.90;;;;;;5051646;28;20217;-65
2021/12/11 05:24:10;;;;;;;2.85;2.30;;;1.70;99.90;;;;;;5052608;28;20205;-64
2021/12/11 05:26:38;;;;;;;2.40;2.20;;;1.70;99.90;;;;;;5052425;28;20675;-65
2021/12/11 05:29:06;;;;;;;2.50;1.90;;;1.70;99.90;;;;;;5052480;28;20205;-65
2021/12/11 05:31:33;;;;;;;2.70;2.50;;;1.70;99.90;;;;;;5052116;28;20221;-65
2021/12/11 05:34:00;;;;;;;3.22;2.30;;;1.70;99.90;;;;;;5052123;28;20201;-64
2021/12/11 05:36:31;;;;;;;2.50;2.30;;;1.60;99.90;;;;;;5052362;28;20208;-64
2021/12/11 05:38:58;;;;;;;2.40;2.20;;;1.70;99.90;;;;;;5051967;28;20579;-64
2021/12/11 05:41:27;;;;;;;2.40;2.10;;;1.70;99.90;;;;;;5051350;28;20229;-64
2021/12/11 05:43:55;;;;;;;2.63;2.42;;;1.70;99.90;;;;;;5051601;28;20216;-64
2021/12/11 05:46:22;;;;;;;2.50;2.20;;;1.70;99.90;;;;;;5052210;28;20631;-64
2021/12/11 05:48:50;;;;;;;3.13;2.92;;;1.70;99.90;;;;;;5052380;28;20221;-64
2021/12/11 05:51:21;;;;;;;3.15;2.85;;;1.70;99.90;;;;;;5050875;28;20267;-64
2021/12/11 05:53:50;;;;;;;2.70;2.50;;;1.70;99.90;;;;;;5052310;28;20262;-65
2021/12/11 05:56:18;;;;;;;3.30;3.00;;;1.70;99.90;;;;;;5051554;28;20593;-64
2021/12/11 05:58:56;;;;;;;2.70;2.42;;;1.70;99.90;;;;;;5052249;28;20253;-64
2021/12/11 06:01:28;;;;;;;3.60;3.30;;;1.70;99.90;;;;;;5050904;28;20315;-64
2021/12/11 06:03:56;;;;;;;3.47;3.17;;;1.70;99.90;;;;;;5052050;28;20551;-65
2021/12/11 06:06:23;;;;;;;3.20;2.97;;;1.70;99.90;;;;;;5051713;28;20201;-64
2021/12/11 06:08:51;;;;;;;3.10;2.90;;;1.70;99.90;;;;;;5148259;22;20231;-66
2021/12/11 06:11:18;;;;;;;2.70;2.50;;;1.70;99.90;;;;;;5106898;28;20223;-66
2021/12/11 06:13:45;;;;;;;2.65;2.45;;;1.70;99.90;;;;;;5092138;28;20203;-66
2021/12/11 06:16:12;;;;;;;2.85;2.65;;;1.80;99.90;;;;;;5092142;28;20204;-66
2021/12/11 06:18:39;;;;;;;2.65;2.45;;;1.80;99.90;;;;;;5092159;28;20705;-66
2021/12/11 06:21:06;;;;;;;2.67;2.47;;;1.80;99.90;;;;;;5090880;28;20215;-66
2021/12/11 06:23:33;;;;;;;2.83;2.63;;;1.80;99.90;;;;;;5092340;28;20287;-66
2021/12/11 06:26:01;;;;;;;2.80;2.60;;;1.70;99.90;;;;;;5091396;28;20203;-66
2021/12/11 06:28:28;;;;;;;2.70;2.50;;;1.70;99.90;;;;;;5092096;28;20210;-66
2021/12/11 06:30:57;;;;;;;4.07;2.95;;;1.80;99.90;;;;;;5090925;28;20204;-66
2021/12/11 06:33:26;;;;;;;3.50;3.20;;;1.80;99.90;;;;;;5091023;28;20452;-65
2021/12/11 06:35:59;;;;;;;2.78;2.58;;;1.80;99.90;;;;;;5091574;28;20336;-65
2021/12/11 06:38:28;;;;;;;2.60;2.40;;;1.80;99.90;;;;;;5091471;28;20616;-66
2021/12/11 06:40:56;;;;;;;2.65;2.42;;;1.70;99.90;;;;;;5090954;28;20581;-66
2021/12/11 06:43:25;;;;;;;2.75;2.55;;;1.80;99.90;;;;;;5090711;28;20666;-65
2021/12/11 06:45:52;;;;;;;3.20;2.90;;;1.70;99.90;;;;;;5091607;28;20203;-65
2021/12/11 06:48:20;;;;;;;4.05;3.45;;;1.70;99.90;;;;;;5091670;28;20203;-65
2021/12/11 06:50:48;;;;;;;3.10;2.90;;;1.70;99.90;;;;;;5091027;28;20203;-65
2021/12/11 06:53:20;;;;;;;3.80;3.50;;;1.70;99.90;;;;;;5088701;28;20227;-65
2021/12/11 06:55:46;;;;;;;3.47;3.17;;;1.70;99.90;;;;;;5089748;28;20211;-65
2021/12/11 06:58:13;;;;;;;3.53;3.22;;;1.70;99.90;;;;;;5091059;28;20227;-65
2021/12/11 07:00:41;;;;;;;4.32;3.80;;;1.70;99.90;;;;;;5091268;28;20200;-65
2021/12/11 07:03:08;;;;;;;4.30;3.90;;;1.80;99.90;;;;;;5090492;28;20224;-65
2021/12/11 07:05:37;;;;;;;3.90;3.47;;;1.70;99.90;;;;;;5091289;28;20203;-65
2021/12/11 07:08:05;;;;;;;5.07;4.63;;;1.80;99.90;;;;;;5089996;28;20215;-66
2021/12/11 07:10:33;;;;;;;4.82;4.32;;;1.80;99.90;;;;;;5091043;28;20246;-66
2021/12/11 07:13:01;;;;;;;4.57;4.20;;;1.80;99.90;;;;;;5089986;28;20219;-67
2021/12/11 07:15:28;;;;;;;4.53;4.07;;;1.70;99.90;;;;;;5083679;28;20196;-66
2021/12/11 07:17:57;;;;;;;4.13;3.72;;;1.70;99.90;;;;;;5085648;28;20220;-66
2021/12/11 07:20:24;;;;;;;4.13;3.70;;;1.70;99.90;;;;;;5090025;28;20571;-66
2021/12/11 07:22:51;;;;;;;4.63;4.22;;;1.70;99.90;;;;;;5086982;28;20222;-66
2021/12/11 07:25:25;;;;;;;5.38;4.15;;;1.80;99.90;;;;;;5090269;28;20203;-66
2021/12/11 07:27:53;;;;;;;4.35;3.95;;;1.80;99.90;;;;;;5090354;28;20678;-66
2021/12/11 07:30:20;;;;;;;4.65;4.25;;;1.80;99.90;;;;;;5089950;28;20200;-66
2021/12/11 07:32:47;;;;;;;5.85;5.00;;;1.80;99.90;;;;;;5089843;28;20220;-66
2021/12/11 07:35:15;;;;;;;4.70;4.20;;;1.80;99.90;;;;;;5090160;28;20290;-68
2021/12/11 07:37:47;;;;;;;6.07;4.60;;;1.80;99.90;;;;;;5089628;28;20208;-66
2021/12/11 07:40:14;;;;;;;4.65;4.22;;;1.80;99.90;;;;;;5090277;28;20220;-66
2021/12/11 07:42:41;;;;;;;4.93;4.32;;;1.80;99.90;;;;;;5089555;28;20269;-65
2021/12/11 07:45:08;;;;;;;6.32;4.65;;;1.80;99.90;;;;;;5089370;28;20203;-66
2021/12/11 07:47:35;;;;;;;5.35;4.65;;;1.90;99.90;;;;;;5090458;28;20574;-66
2021/12/11 07:50:02;;;;;;;4.78;4.38;;;1.90;99.90;;;;;;5085116;28;20196;-66
2021/12/11 07:52:30;;;;;;;5.65;5.05;;;2.00;99.90;;;;;;5086473;28;20224;-67
2021/12/11 07:54:57;;;;;;;5.80;5.25;;;2.00;99.90;;;;;;5089319;28;20204;-66
2021/12/11 07:57:24;;;;;;;5.20;4.80;;;2.00;99.90;;;;;;5089161;28;20210;-66
2021/12/11 07:59:51;;;;;;;5.32;4.80;;;2.00;99.90;;;;;;5088917;28;20269;-66
2021/12/11 08:02:18;;;;;;;5.72;5.18;;;2.00;99.90;;;;;;5088352;28;20557;-66
2021/12/11 08:04:45;;;;;;;5.65;5.05;;;2.00;99.90;;;;;;5090159;28;20215;-66
2021/12/11 08:07:12;;;;;;;5.93;5.35;;;2.00;99.90;;;;;;5086496;28;20208;-66
2021/12/11 08:09:40;;;;;;;6.47;5.88;;;1.90;99.90;;;;;;5090554;28;20196;-66
2021/12/11 08:12:08;;;;;;;7.05;5.95;;;2.00;99.90;;;;;;5091603;28;20222;-66
2021/12/11 08:14:35;;;;;;;7.80;5.55;;;2.00;99.90;;;;;;5092983;28;20199;-66
2021/12/11 08:17:05;;;;;;;6.13;5.53;;;2.00;99.90;;;;;;5091265;28;20200;-66
2021/12/11 08:19:33;;;;;;;7.13;6.43;;;2.00;99.90;;;;;;5093297;28;20242;-66
2021/12/11 08:22:02;;;;;;;7.10;6.38;;;2.00;99.90;;;;;;5092138;28;20640;-66
2021/12/11 08:24:29;;;;;;;6.00;5.50;;;2.00;99.90;;;;;;5093695;28;20199;-67
2021/12/11 08:27:05;;;;;;;7.05;6.20;;;2.00;99.90;;;;;;5093259;28;20196;-66
2021/12/11 08:29:32;;;;;;;7.07;6.30;;;2.00;99.90;;;;;;5093003;28;20200;-66
2021/12/11 08:32:00;;;;;;;7.00;6.30;;;2.00;99.90;;;;;;5092884;28;20611;-66
2021/12/11 08:34:27;;;;;;;7.28;6.40;;;1.90;99.90;;;;;;5093125;28;20618;-67
2021/12/11 08:36:54;;;;;;;7.70;6.90;;;2.00;99.90;;;;;;5092833;28;20215;-66
2021/12/11 08:39:22;;;;;;;8.20;7.05;;;2.00;99.90;;;;;;5093216;28;20227;-66
2021/12/11 08:41:52;;;;;;;10.10;7.53;;;2.00;99.90;;;;;;5092004;28;20220;-66
2021/12/11 08:44:21;;;;;;;8.52;7.57;;;2.10;99.90;;;;;;5092896;28;20203;-65
2021/12/11 08:46:53;;;;;;;10.63;7.50;;;2.10;99.90;;;;;;5092555;28;20294;-66
2021/12/11 08:49:24;;;;;;;8.20;7.15;;;2.10;99.90;;;;;;5092539;28;20196;-66
2021/12/11 08:51:54;;;;;;;7.35;6.65;;;2.10;99.90;;;;;;5092057;28;20227;-66
2021/12/11 08:54:22;;;;;;;9.20;7.63;;;2.10;99.90;;;;;;5092665;28;20682;-66
2021/12/11 08:56:49;;;;;;;7.32;6.57;;;2.10;99.90;;;;;;5092791;28;20207;-66
2021/12/11 08:59:22;;;;;;;8.38;7.60;;;2.10;99.90;;;;;;5092032;28;20224;-66
2021/12/11 09:01:54;;;;;;;7.47;6.72;;;2.20;99.90;;;;;;5091508;28;20223;-67
2021/12/11 09:04:26;;;;;;;9.52;7.18;;;2.20;99.90;;;;;;5093034;28;20200;-66
2021/12/11 09:06:59;;;;;;;7.88;7.07;;;2.20;99.90;;;;;;5091579;28;20228;-66
2021/12/11 09:09:29;;;;;;;7.25;6.43;;;2.30;99.90;;;;;;5092562;28;20210;-66
2021/12/11 09:11:59;;;;;;;9.15;7.70;;;2.30;99.90;;;;;;5091950;28;20589;-66
2021/12/11 09:14:32;;;;;;;9.88;7.30;;;2.30;99.90;;;;;;5091795;28;20200;-66
2021/12/11 09:17:05;;;;;;;9.18;7.20;;;2.30;99.90;;;;;;5090983;28;20693;-66
2021/12/11 09:19:37;;;;;;;9.50;7.03;;;2.40;99.90;;;;;;5092092;28;20266;-66
2021/12/11 09:22:09;;;;;;;6.93;6.22;;;2.50;99.90;;;;;;5091335;28;20228;-66
2021/12/11 09:24:40;;;;;;;7.97;7.18;;;2.50;99.90;;;;;;5092658;28;20208;-67
2021/12/11 09:27:12;;;;;;;9.13;7.10;;;2.60;99.90;;;;;;5091681;28;20200;-67
2021/12/11 09:29:46;;;;;;;7.00;6.30;;;2.60;99.90;;;;;;5092005;28;20203;-67
2021/12/11 09:32:20;;;;;;;9.65;6.63;;;2.70;99.90;;;;;;5091259;28;20228;-66
2021/12/11 09:34:52;;;;;;;8.38;7.45;;;2.80;99.90;;;;;;5092033;28;20200;-66
2021/12/11 09:37:20;;;;;;;8.75;7.55;;;2.90;99.90;;;;;;5089427;28;20265;-66
2021/12/11 09:39:51;;;;;;;8.80;6.90;;;2.90;99.90;;;;;;5091519;28;20277;-66
2021/12/11 09:42:17;;;;;;;7.55;6.75;;;3.00;99.90;;;;;;5091606;28;20226;-66
2021/12/11 09:44:52;;;;;;;7.00;6.30;;;3.10;99.90;;;;;;5091793;28;20207;-66
2021/12/11 09:47:22;;;;;;;6.93;6.22;;;3.20;99.90;;;;;;5091482;28;20706;-66
2021/12/11 09:49:56;;;;;;;9.27;6.80;;;3.30;99.90;;;;;;5091853;28;20196;-66
2021/12/11 09:52:24;;;;;;;9.52;6.78;;;3.30;99.90;;;;;;5090643;28;20215;-66
2021/12/11 09:54:56;;;;;;;8.90;6.63;;;3.50;99.90;;;;;;5091685;28;20196;-66
2021/12/11 09:57:27;;;;;;;8.13;6.50;;;3.60;99.90;;;;;;5090661;28;20231;-66
2021/12/11 10:00:00;;;;;;;7.13;6.15;;;3.70;99.90;;;;;;5091160;28;20702;-66
2021/12/11 10:02:30;;;;;;;7.22;6.20;;;3.80;99.90;;;;;;5090945;28;20251;-66
2021/12/11 10:05:04;;;;;;;5.53;5.03;;;3.80;99.90;;;;;;5090926;28;20196;-66
2021/12/11 10:07:36;;;;;;;7.93;5.85;;;3.80;99.90;;;;;;5090902;28;20221;-66
2021/12/11 10:10:19;;;;;;;7.03;6.32;;;3.80;99.90;;;;;;5090439;28;20211;-66
2021/12/11 10:12:49;;;;;;;6.25;5.65;;;3.90;99.90;;;;;;5091087;28;20231;-65
2021/12/11 10:15:22;;;;;;;6.97;5.65;;;3.90;99.90;;;;;;5090477;28;20207;-65
2021/12/11 10:17:52;;;;;;;5.82;4.90;;;3.90;99.90;;;;;;5089621;28;20199;-65
2021/12/11 10:20:23;;;;;;;6.10;5.50;;;3.90;99.90;;;;;;5091142;28;20223;-67
2021/12/11 10:22:54;;;;;;;7.00;5.85;;;3.90;99.90;;;;;;5090062;28;20224;-66
2021/12/11 10:25:25;;;;;;;6.15;5.53;;;3.90;99.90;;;;;;5091188;28;20200;-65
2021/12/11 10:27:52;;;;;;;6.55;5.40;;;3.90;99.90;;;;;;5090026;28;20768;-65
2021/12/11 10:30:24;;;;;;;6.63;5.90;;;3.80;99.90;;;;;;5091156;28;20211;-67
2021/12/11 10:32:52;;;;;;;7.10;5.53;;;3.70;99.90;;;;;;5090495;28;20584;-66
2021/12/11 10:35:24;;;;;;;5.90;5.20;;;3.70;99.90;;;;;;5089990;28;20199;-66
2021/12/11 10:37:52;;;;;;;6.85;5.32;;;3.70;99.90;;;;;;5090462;28;20529;-66
2021/12/11 10:40:22;;;;;;;6.70;5.63;;;3.70;99.90;;;;;;5090505;28;20250;-66
2021/12/11 10:42:55;;;;;;;6.55;5.55;;;3.70;99.90;;;;;;5089648;28;20219;-66
2021/12/11 10:45:24;;;;;;;6.63;4.43;;;3.80;99.90;;;;;;5090727;28;20741;-66
2021/12/11 10:47:55;;;;;;;5.28;4.78;;;3.70;99.90;;;;;;5089592;28;20196;-66
2021/12/11 10:50:28;;;;;;;8.02;5.18;;;3.70;99.90;;;;;;5090832;28;20560;-66
2021/12/11 10:52:54;;;;;;;6.60;5.57;;;3.70;99.90;;;;;;5089117;28;20686;-66
2021/12/11 10:55:25;;;;;;;6.90;4.90;;;3.60;99.90;;;;;;5090434;28;20244;-66
2021/12/11 10:57:53;;;;;;;5.13;4.63;;;3.60;99.90;;;;;;5089687;28;20574;-66
2021/12/11 11:00:27;;;;;;;5.88;5.28;;;3.60;99.90;;;;;;5089748;28;20275;-66
2021/12/11 11:02:54;;;;;;;5.80;5.22;;;3.60;99.90;;;;;;5089653;28;20223;-66
2021/12/11 11:05:23;;;;;;;6.90;5.47;;;3.60;99.90;;;;;;5089638;28;20207;-66
2021/12/11 11:07:50;;;;;;;6.18;5.57;;;3.60;99.90;;;;;;5090325;28;20215;-66
2021/12/11 11:10:20;;;;;;;7.85;5.95;;;3.60;99.90;;;;;;5090263;28;20208;-68
2021/12/11 11:12:49;;;;;;;5.78;5.18;;;3.50;99.90;;;;;;5088743;28;20223;-66
2021/12/11 11:15:20;;;;;;;6.85;4.95;;;3.50;99.90;;;;;;5090337;28;20203;-66
2021/12/11 11:17:50;;;;;;;5.78;5.03;;;3.50;99.90;;;;;;5089810;28;20199;-67
2021/12/11 11:20:20;;;;;;;5.80;4.57;;;3.50;99.90;;;;;;5090279;28;20227;-66
2021/12/11 11:22:47;;;;;;;6.25;5.40;;;3.50;99.90;;;;;;5090429;28;20228;-66
2021/12/11 11:25:18;;;;;;;6.10;5.45;;;3.50;99.90;;;;;;5089971;28;20200;-66
2021/12/11 11:27:48;;;;;;;5.60;5.10;;;3.50;99.90;;;;;;5089751;28;20751;-66
2021/12/11 11:30:20;;;;;;;6.68;5.22;;;3.50;99.90;;;;;;5089440;28;20196;-66
2021/12/11 11:32:50;;;;;;;6.57;4.82;;;3.50;99.90;;;;;;5089705;28;20231;-68
2021/12/11 11:35:22;;;;;;;6.28;5.68;;;3.50;99.90;;;;;;5089893;28;20566;-66
2021/12/11 11:37:51;;;;;;;5.93;5.32;;;3.60;99.90;;;;;;5089327;28;20199;-66
2021/12/11 11:40:22;;;;;;;5.85;5.22;;;3.60;99.90;;;;;;5088140;28;20483;-66
2021/12/11 11:42:49;;;;;;;5.90;5.30;;;3.60;99.90;;;;;;5084844;28;20581;-67
2021/12/11 11:45:16;;;;;;;5.50;4.55;;;3.70;99.90;;;;;;5088644;28;20654;-66
2021/12/11 11:47:45;;;;;;;6.15;5.55;;;3.70;99.90;;;;;;5088508;28;20200;-68
2021/12/11 11:50:16;;;;;;;5.10;4.60;;;3.70;99.90;;;;;;5087458;28;20192;-65
2021/12/11 11:52:43;;;;;;;7.18;5.10;;;3.70;99.90;;;;;;5088262;28;20224;-65
2021/12/11 11:55:13;;;;;;;5.03;4.60;;;3.60;99.90;;;;;;5085222;28;20728;-65
2021/12/11 11:57:42;;;;;;;4.97;4.38;;;3.60;99.90;;;;;;5084818;28;20219;-66
2021/12/11 12:00:13;;;;;;;5.00;4.50;;;3.60;99.90;;;;;;5085312;28;20215;-66
2021/12/11 12:02:41;;;;;;;5.70;5.10;;;3.70;99.90;;;;;;5087833;28;20219;-66
2021/12/11 12:05:08;;;;;;;6.50;5.82;;;3.70;99.90;;;;;;5087618;28;20659;-66
2021/12/11 12:07:36;;;;;;;5.80;5.13;;;3.70;99.90;;;;;;5086948;28;20199;-66
2021/12/11 12:10:08;;;;;;;8.48;4.82;;;3.70;99.90;;;;;;5087988;28;20215;-66
2021/12/11 12:12:36;;;;;;;6.28;5.68;;;3.70;99.90;;;;;;5087405;28;20219;-66
2021/12/11 12:15:07;;;;;;;7.00;6.00;;;3.70;99.90;;;;;;5087606;28;20202;-66
2021/12/11 12:17:34;;;;;;;5.75;5.25;;;3.70;99.90;;;;;;5094468;22;20223;-89
2021/12/11 12:20:03;;;;;;;13.02;6.85;;;3.70;99.90;;;;;;5070157;28;20231;-87
2021/12/11 12:22:30;;;;;;;5.63;5.10;;;3.80;99.90;;;;;;5070473;28;20213;-88
2021/12/11 12:25:01;;;;;;;6.30;5.70;;;3.80;99.90;;;;;;5073690;28;20458;-87
2021/12/11 12:27:31;;;;;;;5.90;5.40;;;3.90;99.90;;;;;;5072254;28;20268;-88
2021/12/11 12:30:00;;;;;;;6.85;4.85;;;3.90;99.90;;;;;;5073117;28;20188;-88
2021/12/11 12:32:29;;;;;;;6.13;5.25;;;4.00;99.90;;;;;;5073497;28;20705;-88
2021/12/11 12:35:00;;;;;;;9.80;4.70;;;4.10;99.90;;;;;;5071776;28;20196;-87
2021/12/11 12:37:28;;;;;;;4.75;4.25;;;4.10;99.90;;;;;;5071375;28;20217;-88
2021/12/11 12:39:59;;;;;;;4.90;4.45;;;4.10;99.90;;;;;;5070544;28;20207;-88
2021/12/11 12:42:55;;;;;;;5.78;4.75;;;4.00;99.90;;;;;;5070980;28;20680;-88
2021/12/11 12:45:28;;;;;;;4.80;4.35;;;4.10;99.90;;;;;;5068833;28;20235;-87
2021/12/11 12:47:59;;;;;;;4.90;4.40;;;4.10;99.90;;;;;;5071292;28;20231;-87
2021/12/11 12:50:31;;;;;;;4.50;3.70;;;4.40;99.90;;;;;;5070939;28;20196;-88
2021/12/11 12:52:59;;;;;;;4.63;4.22;;;4.60;99.90;;;;;;5074216;28;20204;-88
2021/12/11 12:55:31;;;;;;;3.90;3.45;;;4.70;99.90;;;;;;5074631;28;20258;-87
2021/12/11 12:58:01;;;;;;;3.47;2.95;;;4.60;99.90;;;;;;5073879;28;20220;-89
2021/12/11 13:00:31;;;;;;;3.40;3.10;;;4.50;99.90;;;;;;5074451;28;20224;-87
2021/12/11 13:03:03;;;;;;;5.53;3.05;;;4.50;99.90;;;;;;5075071;28;20253;-87
2021/12/11 13:05:37;;;;;;;3.88;3.25;;;4.40;99.90;;;;;;5075804;28;20204;-90
2021/12/11 13:08:10;;;;;;;4.20;3.60;;;4.40;99.90;;;;;;5075569;28;20758;-88
2021/12/11 13:10:43;;;;;;;4.28;3.50;;;4.30;99.90;;;;;;5075437;28;20201;-88
2021/12/11 13:13:12;;;;;;;5.82;4.10;;;4.20;99.90;;;;;;5079617;28;20341;-88
2021/12/11 13:15:42;;;;;;;3.72;3.40;;;4.20;99.90;;;;;;5089271;28;20570;-88
2021/12/11 13:18:15;;;;;;;4.03;3.40;;;4.10;99.90;;;;;;5089589;28;20319;-88